sensor_id;sensor_type;location;lat;lon;timestamp;pressure;altitude;pressure_sealevel;temperature;humidity
49216;BME280;45943;53.148;8.204;2023-03-20T00:00:58;101787.13;;;14.13;100.00
49216;BME280;45943;53.148;8.204;2023-03-20T00:03:24;101800.50;;;14.14;100.00
49216;BME280;45943;53.148;8.204;2023-03-20T00:05:50;101793.63;;;14.10;100.00
49216;BME280;45943;53.148;8.204;2023-03-20T00:08:16;101793.50;;;14.12;100.00
49216;BME280;45943;53.148;8.204;2023-03-20T00:10:43;101800.38;;;14.16;100.00
49216;BME280;45943;53.148;8.204;2023-03-20T00:13:23;101796.81;;;14.04;100.00
49216;BME280;45943;53.148;8.204;2023-03-20T00:15:52;101809.69;;;14.00;100.00
49216;BME280;45943;53.148;8.204;2023-03-20T00:18:20;101806.16;;;14.00;100.00
49216;BME280;45943;53.148;8.204;2023-03-20T00:20:48;101811.03;;;13.95;100.00
49216;BME280;45943;53.148;8.204;2023-03-20T00:23:15;101807.00;;;14.00;100.00
49216;BME280;45943;53.148;8.204;2023-03-20T00:25:43;101805.75;;;14.04;100.00
49216;BME280;45943;53.148;8.204;2023-03-20T00:28:28;101812.16;;;14.03;100.00
49216;BME280;45943;53.148;8.204;2023-03-20T00:30:55;101821.59;;;13.98;100.00
49216;BME280;45943;53.148;8.204;2023-03-20T00:33:21;101819.38;;;13.81;100.00
49216;BME280;45943;53.148;8.204;2023-03-20T00:35:47;101808.72;;;13.79;100.00
49216;BME280;45943;53.148;8.204;2023-03-20T00:38:13;101805.03;;;13.80;100.00
49216;BME280;45943;53.148;8.204;2023-03-20T00:40:39;101800.13;;;13.85;100.00
49216;BME280;45943;53.148;8.204;2023-03-20T00:43:05;101791.53;;;13.80;100.00
49216;BME280;45943;53.148;8.204;2023-03-20T00:45:32;101803.19;;;13.81;100.00
49216;BME280;45943;53.148;8.204;2023-03-20T00:47:59;101806.00;;;13.79;100.00
49216;BME280;45943;53.148;8.204;2023-03-20T00:50:27;101815.81;;;13.80;100.00
49216;BME280;45943;53.148;8.204;2023-03-20T00:52:54;101815.22;;;13.76;100.00
49216;BME280;45943;53.148;8.204;2023-03-20T00:55:22;101814.56;;;13.73;100.00
49216;BME280;45943;53.148;8.204;2023-03-20T00:57:57;101805.88;;;13.69;100.00
49216;BME280;45943;53.148;8.204;2023-03-20T01:03:01;101823.22;;;13.54;100.00
49216;BME280;45943;53.148;8.204;2023-03-20T01:05:35;101820.78;;;13.51;100.00
49216;BME280;45943;53.148;8.204;2023-03-20T01:08:01;101828.63;;;13.54;100.00
49216;BME280;45943;53.148;8.204;2023-03-20T01:10:28;101842.84;;;13.56;100.00
49216;BME280;45943;53.148;8.204;2023-03-20T01:12:57;101845.19;;;13.61;100.00
49216;BME280;45943;53.148;8.204;2023-03-20T01:15:26;101851.31;;;13.63;100.00
49216;BME280;45943;53.148;8.204;2023-03-20T01:17:57;101845.06;;;13.62;100.00
49216;BME280;45943;53.148;8.204;2023-03-20T01:20:24;101852.44;;;13.60;100.00
49216;BME280;45943;53.148;8.204;2023-03-20T01:22:52;101853.28;;;13.61;100.00
49216;BME280;45943;53.148;8.204;2023-03-20T01:25:19;101851.44;;;13.61;100.00
49216;BME280;45943;53.148;8.204;2023-03-20T01:27:48;101838.66;;;13.52;100.00
49216;BME280;45943;53.148;8.204;2023-03-20T01:30:18;101832.53;;;13.50;100.00
49216;BME280;45943;53.148;8.204;2023-03-20T01:32:46;101842.69;;;13.46;100.00
49216;BME280;45943;53.148;8.204;2023-03-20T01:35:14;101838.28;;;13.45;100.00
49216;BME280;45943;53.148;8.204;2023-03-20T01:37:42;101829.44;;;13.43;100.00
49216;BME280;45943;53.148;8.204;2023-03-20T01:40:11;101836.06;;;13.39;100.00
49216;BME280;45943;53.148;8.204;2023-03-20T01:42:47;101828.56;;;13.32;100.00
49216;BME280;45943;53.148;8.204;2023-03-20T01:45:15;101838.06;;;13.25;100.00
49216;BME280;45943;53.148;8.204;2023-03-20T01:47:44;101834.88;;;13.19;100.00
49216;BME280;45943;53.148;8.204;2023-03-20T01:52:55;101842.91;;;13.32;100.00
49216;BME280;45943;53.148;8.204;2023-03-20T01:55:26;101840.94;;;13.34;100.00
49216;BME280;45943;53.148;8.204;2023-03-20T01:57:53;101842.44;;;13.38;100.00
49216;BME280;45943;53.148;8.204;2023-03-20T02:00:25;101839.09;;;13.35;100.00
49216;BME280;45943;53.148;8.204;2023-03-20T02:02:51;101839.09;;;13.35;100.00
49216;BME280;45943;53.148;8.204;2023-03-20T02:05:18;101837.50;;;13.32;100.00
49216;BME280;45943;53.148;8.204;2023-03-20T02:07:49;101830.84;;;13.25;100.00
49216;BME280;45943;53.148;8.204;2023-03-20T02:10:20;101830.00;;;13.25;100.00
49216;BME280;45943;53.148;8.204;2023-03-20T02:12:46;101826.31;;;13.26;100.00
49216;BME280;45943;53.148;8.204;2023-03-20T02:15:13;101830.97;;;13.24;100.00
49216;BME280;45943;53.148;8.204;2023-03-20T02:17:41;101829.50;;;13.19;100.00
49216;BME280;45943;53.148;8.204;2023-03-20T02:31:19;101826.38;;;13.13;100.00
49216;BME280;45943;53.148;8.204;2023-03-20T02:36:55;101818.97;;;13.04;100.00
49216;BME280;45943;53.148;8.204;2023-03-20T02:39:31;101809.44;;;13.00;100.00
49216;BME280;45943;53.148;8.204;2023-03-20T02:42:21;101794.69;;;12.92;100.00
49216;BME280;45943;53.148;8.204;2023-03-20T02:45:09;101793.25;;;13.00;100.00
49216;BME280;45943;53.148;8.204;2023-03-20T02:47:47;101787.03;;;12.99;100.00
49216;BME280;45943;53.148;8.204;2023-03-20T02:56:06;101778.53;;;12.92;100.00
49216;BME280;45943;53.148;8.204;2023-03-20T02:58:45;101784.66;;;12.95;100.00
49216;BME280;45943;53.148;8.204;2023-03-20T03:01:18;101788.22;;;12.95;100.00
49216;BME280;45943;53.148;8.204;2023-03-20T03:04:01;101790.44;;;13.01;100.00
49216;BME280;45943;53.148;8.204;2023-03-20T03:06:33;101784.81;;;13.04;100.00
49216;BME280;45943;53.148;8.204;2023-03-20T03:09:03;101783.97;;;13.04;100.00
49216;BME280;45943;53.148;8.204;2023-03-20T03:11:37;101773.19;;;13.04;100.00
49216;BME280;45943;53.148;8.204;2023-03-20T03:14:13;101777.72;;;13.03;100.00
49216;BME280;45943;53.148;8.204;2023-03-20T03:16:44;101775.16;;;13.02;100.00
49216;BME280;45943;53.148;8.204;2023-03-20T03:19:17;101769.16;;;12.98;100.00
49216;BME280;45943;53.148;8.204;2023-03-20T03:21:48;101759.44;;;12.96;100.00
49216;BME280;45943;53.148;8.204;2023-03-20T03:24:31;101762.25;;;12.94;100.00
49216;BME280;45943;53.148;8.204;2023-03-20T03:27:00;101756.41;;;13.00;100.00
49216;BME280;45943;53.148;8.204;2023-03-20T03:29:33;101761.44;;;13.05;100.00
49216;BME280;45943;53.148;8.204;2023-03-20T03:32:04;101756.06;;;13.05;100.00
49216;BME280;45943;53.148;8.204;2023-03-20T03:34:31;101762.53;;;13.02;100.00
49216;BME280;45943;53.148;8.204;2023-03-20T03:47:49;101755.91;;;12.95;100.00
49216;BME280;45943;53.148;8.204;2023-03-20T03:50:24;101757.59;;;12.96;100.00
49216;BME280;45943;53.148;8.204;2023-03-20T03:52:59;101753.06;;;12.97;100.00
49216;BME280;45943;53.148;8.204;2023-03-20T03:56:12;101754.78;;;12.98;100.00
49216;BME280;45943;53.148;8.204;2023-03-20T03:58:29;101752.00;;;12.99;100.00
49216;BME280;45943;53.148;8.204;2023-03-20T04:00:59;101763.13;;;12.95;100.00
49216;BME280;45943;53.148;8.204;2023-03-20T04:03:30;101753.31;;;12.93;100.00
49216;BME280;45943;53.148;8.204;2023-03-20T04:06:02;101760.53;;;12.93;100.00
49216;BME280;45943;53.148;8.204;2023-03-20T04:08:32;101749.53;;;12.96;100.00
49216;BME280;45943;53.148;8.204;2023-03-20T04:10:58;101749.66;;;12.95;100.00
49216;BME280;45943;53.148;8.204;2023-03-20T04:13:24;101742.78;;;12.90;100.00
49216;BME280;45943;53.148;8.204;2023-03-20T04:15:51;101736.88;;;12.85;100.00
49216;BME280;45943;53.148;8.204;2023-03-20T04:18:17;101736.75;;;12.87;100.00
49216;BME280;45943;53.148;8.204;2023-03-20T04:20:44;101730.53;;;12.86;100.00
49216;BME280;45943;53.148;8.204;2023-03-20T04:23:12;101733.97;;;12.88;100.00
49216;BME280;45943;53.148;8.204;2023-03-20T04:25:38;101734.84;;;12.89;100.00
49216;BME280;45943;53.148;8.204;2023-03-20T04:28:05;101723.53;;;12.84;100.00
49216;BME280;45943;53.148;8.204;2023-03-20T04:30:31;101731.13;;;12.79;100.00
49216;BME280;45943;53.148;8.204;2023-03-20T04:32:57;101734.75;;;12.78;100.00
49216;BME280;45943;53.148;8.204;2023-03-20T04:35:23;101729.38;;;12.78;100.00
49216;BME280;45943;53.148;8.204;2023-03-20T04:37:49;101731.44;;;12.74;100.00
49216;BME280;45943;53.148;8.204;2023-03-20T04:40:15;101727.16;;;12.72;100.00
49216;BME280;45943;53.148;8.204;2023-03-20T04:42:41;101734.28;;;12.73;100.00
49216;BME280;45943;53.148;8.204;2023-03-20T04:45:07;101735.50;;;12.69;100.00
49216;BME280;45943;53.148;8.204;2023-03-20T04:47:34;101738.63;;;12.62;100.00
49216;BME280;45943;53.148;8.204;2023-03-20T04:50:00;101730.25;;;12.54;100.00
49216;BME280;45943;53.148;8.204;2023-03-20T04:52:26;101733.69;;;12.56;100.00
49216;BME280;45943;53.148;8.204;2023-03-20T04:54:52;101735.31;;;12.59;100.00
49216;BME280;45943;53.148;8.204;2023-03-20T04:57:18;101733.47;;;12.59;100.00
49216;BME280;45943;53.148;8.204;2023-03-20T04:59:44;101731.25;;;12.53;100.00
49216;BME280;45943;53.148;8.204;2023-03-20T05:02:09;101738.88;;;12.59;100.00
49216;BME280;45943;53.148;8.204;2023-03-20T05:04:40;101744.00;;;12.62;100.00
49216;BME280;45943;53.148;8.204;2023-03-20T05:07:07;101742.91;;;12.65;100.00
49216;BME280;45943;53.148;8.204;2023-03-20T05:09:33;101738.34;;;12.54;100.00
49216;BME280;45943;53.148;8.204;2023-03-20T05:11:59;101736.50;;;12.55;100.00
49216;BME280;45943;53.148;8.204;2023-03-20T05:14:25;101732.22;;;12.52;100.00
49216;BME280;45943;53.148;8.204;2023-03-20T05:16:51;101738.91;;;12.47;100.00
49216;BME280;45943;53.148;8.204;2023-03-20T05:19:17;101736.69;;;12.28;100.00
49216;BME280;45943;53.148;8.204;2023-03-20T05:21:43;101740.25;;;12.28;100.00
49216;BME280;45943;53.148;8.204;2023-03-20T05:24:09;101738.34;;;12.30;100.00
49216;BME280;45943;53.148;8.204;2023-03-20T05:26:35;101746.06;;;12.35;100.00
49216;BME280;45943;53.148;8.204;2023-03-20T05:29:01;101750.47;;;12.36;100.00
49216;BME280;45943;53.148;8.204;2023-03-20T05:31:27;101740.44;;;12.38;100.00
49216;BME280;45943;53.148;8.204;2023-03-20T05:33:53;101743.59;;;12.32;100.00
49216;BME280;45943;53.148;8.204;2023-03-20T05:36:19;101745.44;;;12.19;100.00
49216;BME280;45943;53.148;8.204;2023-03-20T05:38:45;101745.13;;;12.23;100.00
49216;BME280;45943;53.148;8.204;2023-03-20T05:41:11;101754.69;;;12.27;100.00
49216;BME280;45943;53.148;8.204;2023-03-20T05:43:37;101747.88;;;12.34;100.00
49216;BME280;45943;53.148;8.204;2023-03-20T05:46:03;101753.81;;;12.40;100.00
49216;BME280;45943;53.148;8.204;2023-03-20T05:48:30;101750.16;;;12.28;100.00
49216;BME280;45943;53.148;8.204;2023-03-20T05:50:56;101754.69;;;12.27;100.00
49216;BME280;45943;53.148;8.204;2023-03-20T05:53:22;101758.34;;;12.26;100.00
49216;BME280;45943;53.148;8.204;2023-03-20T05:55:48;101763.69;;;12.39;100.00
49216;BME280;45943;53.148;8.204;2023-03-20T05:58:14;101758.59;;;12.47;100.00
49216;BME280;45943;53.148;8.204;2023-03-20T06:00:40;101763.41;;;12.55;100.00
49216;BME280;45943;53.148;8.204;2023-03-20T06:03:06;101765.38;;;12.53;100.00
49216;BME280;45943;53.148;8.204;2023-03-20T06:05:32;101764.22;;;12.44;100.00
49216;BME280;45943;53.148;8.204;2023-03-20T06:07:59;101759.34;;;12.49;100.00
49216;BME280;45943;53.148;8.204;2023-03-20T06:10:25;101761.06;;;12.50;100.00
49216;BME280;45943;53.148;8.204;2023-03-20T06:12:52;101762.13;;;12.48;100.00
49216;BME280;45943;53.148;8.204;2023-03-20T06:15:18;101761.63;;;12.43;100.00
49216;BME280;45943;53.148;8.204;2023-03-20T06:17:44;101771.53;;;12.42;100.00
49216;BME280;45943;53.148;8.204;2023-03-20T06:20:10;101769.53;;;12.33;100.00
49216;BME280;45943;53.148;8.204;2023-03-20T06:22:37;101762.50;;;12.43;100.00
49216;BME280;45943;53.148;8.204;2023-03-20T06:25:03;101773.38;;;12.42;100.00
49216;BME280;45943;53.148;8.204;2023-03-20T06:27:30;101781.22;;;12.45;100.00
49216;BME280;45943;53.148;8.204;2023-03-20T06:29:56;101771.06;;;12.48;100.00
49216;BME280;45943;53.148;8.204;2023-03-20T06:32:22;101776.81;;;12.44;100.00
49216;BME280;45943;53.148;8.204;2023-03-20T06:34:48;101785.84;;;12.43;100.00
49216;BME280;45943;53.148;8.204;2023-03-20T06:37:14;101788.13;;;12.36;100.00
49216;BME280;45943;53.148;8.204;2023-03-20T06:39:40;101787.69;;;12.42;100.00
49216;BME280;45943;53.148;8.204;2023-03-20T06:42:06;101786.47;;;12.46;100.00
49216;BME280;45943;53.148;8.204;2023-03-20T06:44:32;101778.38;;;12.22;100.00
49216;BME280;45943;53.148;8.204;2023-03-20T06:46:58;101781.38;;;12.30;100.00
49216;BME280;45943;53.148;8.204;2023-03-20T06:49:24;101780.09;;;12.23;100.00
49216;BME280;45943;53.148;8.204;2023-03-20T06:51:50;101772.75;;;12.25;100.00
49216;BME280;45943;53.148;8.204;2023-03-20T06:54:16;101779.44;;;12.32;100.00
49216;BME280;45943;53.148;8.204;2023-03-20T06:56:42;101776.06;;;12.29;100.00
49216;BME280;45943;53.148;8.204;2023-03-20T06:59:08;101774.66;;;12.36;100.00
49216;BME280;45943;53.148;8.204;2023-03-20T07:01:34;101774.66;;;12.49;100.00
49216;BME280;45943;53.148;8.204;2023-03-20T07:04:00;101778.81;;;12.53;100.00
49216;BME280;45943;53.148;8.204;2023-03-20T07:06:26;101784.81;;;12.32;100.00
49216;BME280;45943;53.148;8.204;2023-03-20T07:08:52;101783.22;;;12.30;100.00
49216;BME280;45943;53.148;8.204;2023-03-20T07:11:18;101784.34;;;12.39;100.00
49216;BME280;45943;53.148;8.204;2023-03-20T07:13:44;101779.63;;;12.42;100.00
49216;BME280;45943;53.148;8.204;2023-03-20T07:16:10;101784.03;;;12.43;100.00
49216;BME280;45943;53.148;8.204;2023-03-20T07:18:36;101787.63;;;12.31;100.00
49216;BME280;45943;53.148;8.204;2023-03-20T07:21:03;101787.38;;;12.34;100.00
49216;BME280;45943;53.148;8.204;2023-03-20T07:23:31;101804.16;;;12.38;100.00
49216;BME280;45943;53.148;8.204;2023-03-20T07:25:59;101807.31;;;12.31;100.00
49216;BME280;45943;53.148;8.204;2023-03-20T07:28:25;101803.88;;;12.29;100.00
49216;BME280;45943;53.148;8.204;2023-03-20T07:30:51;101802.78;;;12.32;100.00
49216;BME280;45943;53.148;8.204;2023-03-20T07:33:17;101804.00;;;12.15;100.00
49216;BME280;45943;53.148;8.204;2023-03-20T07:35:43;101807.22;;;12.20;100.00
49216;BME280;45943;53.148;8.204;2023-03-20T07:38:10;101800.41;;;12.27;100.00
49216;BME280;45943;53.148;8.204;2023-03-20T07:40:36;101806.75;;;12.26;100.00
49216;BME280;45943;53.148;8.204;2023-03-20T07:43:02;101804.19;;;12.25;100.00
49216;BME280;45943;53.148;8.204;2023-03-20T07:45:28;101809.13;;;12.31;100.00
49216;BME280;45943;53.148;8.204;2023-03-20T07:47:54;101805.47;;;12.32;100.00
49216;BME280;45943;53.148;8.204;2023-03-20T07:50:20;101805.47;;;12.32;100.00
49216;BME280;45943;53.148;8.204;2023-03-20T07:52:47;101814.91;;;12.38;100.00
49216;BME280;45943;53.148;8.204;2023-03-20T07:55:14;101819.00;;;12.43;100.00
49216;BME280;45943;53.148;8.204;2023-03-20T07:57:41;101821.56;;;12.45;100.00
49216;BME280;45943;53.148;8.204;2023-03-20T08:00:07;101813.56;;;12.56;100.00
49216;BME280;45943;53.148;8.204;2023-03-20T08:02:35;101814.44;;;12.56;100.00
49216;BME280;45943;53.148;8.204;2023-03-20T08:05:00;101809.06;;;12.56;100.00
49216;BME280;45943;53.148;8.204;2023-03-20T08:07:27;101808.84;;;12.59;100.00
49216;BME280;45943;53.148;8.204;2023-03-20T08:09:54;101818.53;;;12.62;100.00
49216;BME280;45943;53.148;8.204;2023-03-20T08:12:20;101817.97;;;12.57;100.00
49216;BME280;45943;53.148;8.204;2023-03-20T08:14:46;101815.59;;;12.65;100.00
49216;BME280;45943;53.148;8.204;2023-03-20T08:17:12;101822.56;;;12.68;100.00
49216;BME280;45943;53.148;8.204;2023-03-20T08:19:38;101820.91;;;12.78;100.00
49216;BME280;45943;53.148;8.204;2023-03-20T08:22:04;101810.16;;;12.78;100.00
49216;BME280;45943;53.148;8.204;2023-03-20T08:24:30;101813.06;;;12.75;100.00
49216;BME280;45943;53.148;8.204;2023-03-20T08:26:56;101820.84;;;12.67;100.00
49216;BME280;45943;53.148;8.204;2023-03-20T08:29:22;101819.94;;;12.55;100.00
49216;BME280;45943;53.148;8.204;2023-03-20T08:31:48;101825.66;;;12.50;100.00
49216;BME280;45943;53.148;8.204;2023-03-20T08:34:14;101821.31;;;12.60;100.00
49216;BME280;45943;53.148;8.204;2023-03-20T08:36:40;101815.41;;;12.55;100.00
49216;BME280;45943;53.148;8.204;2023-03-20T08:39:06;101814.13;;;12.61;100.00
49216;BME280;45943;53.148;8.204;2023-03-20T08:41:33;101823.72;;;12.52;100.00
49216;BME280;45943;53.148;8.204;2023-03-20T08:44:01;101811.22;;;12.51;100.00
49216;BME280;45943;53.148;8.204;2023-03-20T08:46:27;101822.06;;;12.62;100.00
49216;BME280;45943;53.148;8.204;2023-03-20T08:48:53;101811.22;;;12.51;100.00
49216;BME280;45943;53.148;8.204;2023-03-20T08:51:19;101803.66;;;12.56;100.00
49216;BME280;45943;53.148;8.204;2023-03-20T08:53:45;101814.41;;;12.69;100.00
49216;BME280;45943;53.148;8.204;2023-03-20T08:56:11;101806.09;;;12.72;100.00
49216;BME280;45943;53.148;8.204;2023-03-20T08:58:37;101802.97;;;12.78;100.00
49216;BME280;45943;53.148;8.204;2023-03-20T09:01:05;101799.78;;;12.84;100.00
49216;BME280;45943;53.148;8.204;2023-03-20T09:03:32;101804.50;;;12.93;100.00
49216;BME280;45943;53.148;8.204;2023-03-20T09:05:58;101807.34;;;13.03;100.00
49216;BME280;45943;53.148;8.204;2023-03-20T09:08:24;101816.28;;;13.04;100.00
49216;BME280;45943;53.148;8.204;2023-03-20T09:10:50;101814.22;;;12.83;100.00
49216;BME280;45943;53.148;8.204;2023-03-20T09:13:16;101814.59;;;12.79;100.00
49216;BME280;45943;53.148;8.204;2023-03-20T09:15:42;101818.22;;;12.78;100.00
49216;BME280;45943;53.148;8.204;2023-03-20T09:18:08;101823.84;;;12.75;100.00
49216;BME280;45943;53.148;8.204;2023-03-20T09:20:34;101819.38;;;12.86;100.00
49216;BME280;45943;53.148;8.204;2023-03-20T09:23:00;101815.38;;;12.92;100.00
49216;BME280;45943;53.148;8.204;2023-03-20T09:25:26;101805.47;;;12.92;100.00
49216;BME280;45943;53.148;8.204;2023-03-20T09:27:52;101808.91;;;12.95;100.00
49216;BME280;45943;53.148;8.204;2023-03-20T09:30:24;101810.16;;;13.02;100.00
49216;BME280;45943;53.148;8.204;2023-03-20T09:32:50;101809.44;;;13.00;100.00
49216;BME280;45943;53.148;8.204;2023-03-20T09:35:17;101811.34;;;12.98;100.00
49216;BME280;45943;53.148;8.204;2023-03-20T09:37:43;101810.03;;;13.03;100.00
49216;BME280;45943;53.148;8.204;2023-03-20T09:40:32;101816.34;;;13.15;100.00
49216;BME280;45943;53.148;8.204;2023-03-20T09:51:13;101808.69;;;13.22;100.00
49216;BME280;45943;53.148;8.204;2023-03-20T09:53:48;101813.72;;;13.26;100.00
49216;BME280;45943;53.148;8.204;2023-03-20T09:56:27;101809.44;;;13.35;100.00
49216;BME280;45943;53.148;8.204;2023-03-20T09:58:56;101809.97;;;13.40;100.00
49216;BME280;45943;53.148;8.204;2023-03-20T10:01:32;101811.81;;;13.39;100.00
49216;BME280;45943;53.148;8.204;2023-03-20T10:04:10;101803.78;;;13.27;100.00
49216;BME280;45943;53.148;8.204;2023-03-20T10:06:37;101803.31;;;13.33;100.00
49216;BME280;45943;53.148;8.204;2023-03-20T10:09:11;101802.63;;;13.42;100.00
49216;BME280;45943;53.148;8.204;2023-03-20T10:14:41;101802.31;;;13.23;100.00
49216;BME280;45943;53.148;8.204;2023-03-20T10:22:55;101806.19;;;13.54;100.00
49216;BME280;45943;53.148;8.204;2023-03-20T10:25:27;101803.16;;;13.58;100.00
49216;BME280;45943;53.148;8.204;2023-03-20T10:27:58;101796.16;;;13.56;100.00
49216;BME280;45943;53.148;8.204;2023-03-20T10:33:12;101796.78;;;13.59;100.00
49216;BME280;45943;53.148;8.204;2023-03-20T10:35:57;101789.09;;;13.77;100.00
49216;BME280;45943;53.148;8.204;2023-03-20T10:38:45;101780.50;;;13.94;100.00
49216;BME280;45943;53.148;8.204;2023-03-20T10:41:24;101770.59;;;14.06;100.00
49216;BME280;45943;53.148;8.204;2023-03-20T10:43:55;101771.69;;;14.26;95.56
49216;BME280;45943;53.148;8.204;2023-03-20T10:46:30;101782.69;;;14.45;95.47
49216;BME280;45943;53.148;8.204;2023-03-20T10:49:01;101768.34;;;14.56;88.00
49216;BME280;45943;53.148;8.204;2023-03-20T10:51:36;101778.28;;;14.55;85.62
49216;BME280;45943;53.148;8.204;2023-03-20T10:54:09;101763.41;;;14.61;87.59
49216;BME280;45943;53.148;8.204;2023-03-20T10:56:46;101771.00;;;14.67;85.75
49216;BME280;45943;53.148;8.204;2023-03-20T11:02:12;101777.50;;;14.64;89.53
49216;BME280;45943;53.148;8.204;2023-03-20T11:04:40;101781.63;;;14.48;85.68
49216;BME280;45943;53.148;8.204;2023-03-20T11:07:18;101765.66;;;14.45;90.04
49216;BME280;45943;53.148;8.204;2023-03-20T11:10:11;101768.84;;;14.39;89.35
49216;BME280;45943;53.148;8.204;2023-03-20T11:12:41;101772.84;;;14.44;91.73
49216;BME280;45943;53.148;8.204;2023-03-20T11:20:25;101751.78;;;14.38;94.35
49216;BME280;45943;53.148;8.204;2023-03-20T11:22:57;101764.91;;;14.31;93.48
49216;BME280;45943;53.148;8.204;2023-03-20T11:25:30;101753.50;;;14.39;89.91
49216;BME280;45943;53.148;8.204;2023-03-20T11:33:45;101753.72;;;14.58;90.06
49216;BME280;45943;53.148;8.204;2023-03-20T11:36:26;101756.31;;;14.49;87.66
49216;BME280;45943;53.148;8.204;2023-03-20T11:39:00;101743.91;;;14.35;86.91
49216;BME280;45943;53.148;8.204;2023-03-20T11:41:32;101761.22;;;14.32;88.62
49216;BME280;45943;53.148;8.204;2023-03-20T11:43:58;101744.19;;;14.21;88.89
49216;BME280;45943;53.148;8.204;2023-03-20T11:46:24;101750.56;;;14.31;89.01
49216;BME280;45943;53.148;8.204;2023-03-20T11:49:01;101745.06;;;14.10;88.90
49216;BME280;45943;53.148;8.204;2023-03-20T11:51:49;101746.00;;;14.43;91.96
49216;BME280;45943;53.148;8.204;2023-03-20T11:54:21;101762.84;;;14.24;87.61
49216;BME280;45943;53.148;8.204;2023-03-20T11:56:56;101750.44;;;14.32;85.72
49216;BME280;45943;53.148;8.204;2023-03-20T11:59:33;101741.00;;;14.38;88.62
49216;BME280;45943;53.148;8.204;2023-03-20T12:02:02;101749.56;;;14.32;87.50
49216;BME280;45943;53.148;8.204;2023-03-20T12:04:40;101749.72;;;14.30;86.56
49216;BME280;45943;53.148;8.204;2023-03-20T12:07:12;101753.75;;;14.36;86.42
49216;BME280;45943;53.148;8.204;2023-03-20T12:09:47;101746.75;;;14.33;89.27
49216;BME280;45943;53.148;8.204;2023-03-20T12:17:41;101751.78;;;14.38;88.31
49216;BME280;45943;53.148;8.204;2023-03-20T12:25:41;101748.34;;;14.25;86.57
49216;BME280;45943;53.148;8.204;2023-03-20T12:28:19;101742.63;;;14.07;87.09
49216;BME280;45943;53.148;8.204;2023-03-20T12:31:15;101747.72;;;14.32;84.89
49216;BME280;45943;53.148;8.204;2023-03-20T12:34:09;101739.75;;;14.42;84.82
49216;BME280;45943;53.148;8.204;2023-03-20T12:36:42;101738.56;;;14.46;83.72
49216;BME280;45943;53.148;8.204;2023-03-20T12:39:13;101740.13;;;14.49;83.68
49216;BME280;45943;53.148;8.204;2023-03-20T12:58:15;101725.41;;;14.30;85.88
49216;BME280;45943;53.148;8.204;2023-03-20T13:01:13;101727.00;;;14.33;84.79
49216;BME280;45943;53.148;8.204;2023-03-20T13:04:11;101725.31;;;14.21;88.02
49216;BME280;45943;53.148;8.204;2023-03-20T13:06:59;101726.53;;;14.28;85.79
49216;BME280;45943;53.148;8.204;2023-03-20T13:20:48;101720.63;;;14.23;89.93
49216;BME280;45943;53.148;8.204;2023-03-20T13:26:11;101716.97;;;14.13;91.22
49216;BME280;45943;53.148;8.204;2023-03-20T13:31:33;101713.78;;;14.19;92.84
49216;BME280;45943;53.148;8.204;2023-03-20T13:39:23;101713.69;;;13.98;95.26
49216;BME280;45943;53.148;8.204;2023-03-20T13:41:55;101719.09;;;14.09;96.23
49216;BME280;45943;53.148;8.204;2023-03-20T13:44:25;101716.97;;;14.13;98.02
49216;BME280;45943;53.148;8.204;2023-03-20T13:46:54;101718.72;;;14.02;100.00
49216;BME280;45943;53.148;8.204;2023-03-20T13:49:34;101707.53;;;13.96;100.00
49216;BME280;45943;53.148;8.204;2023-03-20T13:52:11;101704.53;;;13.78;100.00
49216;BME280;45943;53.148;8.204;2023-03-20T14:05:47;101741.16;;;13.69;100.00
49216;BME280;45943;53.148;8.204;2023-03-20T14:13:29;101736.63;;;13.70;100.00
49216;BME280;45943;53.148;8.204;2023-03-20T14:15:56;101731.59;;;13.65;100.00
49216;BME280;45943;53.148;8.204;2023-03-20T14:18:27;101735.00;;;13.56;100.00
49216;BME280;45943;53.148;8.204;2023-03-20T14:20:57;101732.44;;;13.55;100.00
49216;BME280;45943;53.148;8.204;2023-03-20T14:23:31;101731.97;;;13.49;100.00
49216;BME280;45943;53.148;8.204;2023-03-20T14:25:59;101731.22;;;13.47;100.00
49216;BME280;45943;53.148;8.204;2023-03-20T14:28:30;101728.47;;;13.36;100.00
49216;BME280;45943;53.148;8.204;2023-03-20T14:31:11;101724.97;;;13.12;100.00
49216;BME280;45943;53.148;8.204;2023-03-20T14:39:43;101714.53;;;13.42;100.00
49216;BME280;45943;53.148;8.204;2023-03-20T14:47:54;101709.66;;;13.59;100.00
49216;BME280;45943;53.148;8.204;2023-03-20T14:50:35;101706.22;;;13.57;100.00
49216;BME280;45943;53.148;8.204;2023-03-20T14:53:18;101697.66;;;13.52;100.00
49216;BME280;45943;53.148;8.204;2023-03-20T15:01:09;101695.41;;;13.23;100.00
49216;BME280;45943;53.148;8.204;2023-03-20T15:03:39;101693.06;;;13.18;100.00
49216;BME280;45943;53.148;8.204;2023-03-20T15:06:07;101703.53;;;12.99;100.00
49216;BME280;45943;53.148;8.204;2023-03-20T15:08:36;101702.22;;;13.16;100.00
49216;BME280;45943;53.148;8.204;2023-03-20T15:11:11;101712.25;;;13.14;100.00
49216;BME280;45943;53.148;8.204;2023-03-20T15:13:39;101705.72;;;13.05;100.00
49216;BME280;45943;53.148;8.204;2023-03-20T15:16:11;101699.16;;;13.09;100.00
49216;BME280;45943;53.148;8.204;2023-03-20T15:18:40;101703.44;;;13.12;100.00
49216;BME280;45943;53.148;8.204;2023-03-20T15:21:15;101712.25;;;13.14;100.00
49216;BME280;45943;53.148;8.204;2023-03-20T15:23:44;101708.44;;;13.16;100.00
49216;BME280;45943;53.148;8.204;2023-03-20T15:26:12;101708.31;;;13.07;100.00